createdAt,value
2022-11-23T00:00:07.428Z,6.50
2022-11-23T00:02:34.099Z,6.50
2022-11-23T00:05:00.730Z,6.40
2022-11-23T00:07:27.370Z,6.50
2022-11-23T00:09:53.955Z,6.50
2022-11-23T00:12:20.571Z,6.50
2022-11-23T00:14:47.148Z,6.50
2022-11-23T00:17:13.722Z,6.50
2022-11-23T00:19:40.303Z,6.50
2022-11-23T00:22:06.873Z,6.50
2022-11-23T00:24:33.598Z,6.50
2022-11-23T00:27:00.326Z,6.40
2022-11-23T00:29:27.291Z,6.40
2022-11-23T00:31:53.860Z,6.40
2022-11-23T00:34:20.420Z,6.40
2022-11-23T00:36:47.002Z,6.30
2022-11-23T00:39:13.575Z,6.30
2022-11-23T00:41:40.157Z,6.20
2022-11-23T00:44:07.810Z,6.30
2022-11-23T00:46:34.379Z,6.30
2022-11-23T00:49:01.626Z,6.20
2022-11-23T00:51:31.643Z,6.20
2022-11-23T00:53:59.698Z,6.20
2022-11-23T00:56:27.252Z,6.30
2022-11-23T00:58:56.216Z,6.20
2022-11-23T01:01:25.957Z,6.20
2022-11-23T01:03:58.286Z,6.10
2022-11-23T01:06:35.985Z,6.10
2022-11-23T01:09:06.038Z,6.10
2022-11-23T01:11:33.067Z,6.10
2022-11-23T01:14:00.025Z,6.10
2022-11-23T01:16:32.530Z,6.00
2022-11-23T01:19:02.252Z,5.90
2022-11-23T01:21:30.341Z,5.80
2022-11-23T01:23:57.487Z,5.80
2022-11-23T01:26:25.131Z,5.80
2022-11-23T01:28:52.102Z,5.70
2022-11-23T01:31:23.119Z,5.70
2022-11-23T01:33:54.408Z,5.60
2022-11-23T01:36:24.687Z,5.60
2022-11-23T01:38:51.633Z,5.50
2022-11-23T01:41:21.619Z,5.50
2022-11-23T01:43:48.866Z,5.50
2022-11-23T01:46:15.542Z,5.50
2022-11-23T01:48:47.665Z,5.50
2022-11-23T01:51:35.487Z,5.40
2022-11-23T01:54:32.446Z,5.40
2022-11-23T01:57:07.566Z,5.40
2022-11-23T01:59:35.446Z,5.40
2022-11-23T02:02:02.448Z,5.40
2022-11-23T02:04:33.515Z,5.40
2022-11-23T02:07:01.883Z,5.50
2022-11-23T02:09:32.373Z,5.50
2022-11-23T02:11:59.576Z,5.50
2022-11-23T02:14:26.246Z,5.40
2022-11-23T02:16:52.852Z,5.40
2022-11-23T02:19:42.317Z,5.30
2022-11-23T02:22:19.862Z,5.30
2022-11-23T02:24:53.154Z,5.20
2022-11-23T02:27:20.119Z,5.20
2022-11-23T02:29:48.106Z,5.20
2022-11-23T02:32:24.598Z,5.20
2022-11-23T02:34:51.241Z,5.10
2022-11-23T02:37:18.672Z,5.10
2022-11-23T02:39:49.267Z,5.10
2022-11-23T02:42:15.855Z,5.00
2022-11-23T02:45:08.650Z,5.00
2022-11-23T02:47:35.227Z,5.00
2022-11-23T02:50:01.836Z,4.90
2022-11-23T02:52:28.410Z,4.80
2022-11-23T02:54:54.982Z,4.80
2022-11-23T02:57:21.888Z,4.80
2022-11-23T02:59:48.568Z,4.90
2022-11-23T03:02:15.143Z,4.90
2022-11-23T03:04:41.725Z,4.80
2022-11-23T03:07:08.341Z,4.80
2022-11-23T03:09:35.087Z,4.70
2022-11-23T03:12:01.790Z,4.70
2022-11-23T03:14:28.477Z,4.70
2022-11-23T03:16:55.082Z,4.60
2022-11-23T03:19:21.695Z,4.60
2022-11-23T03:21:48.250Z,4.60
2022-11-23T03:24:15.245Z,4.50
2022-11-23T03:26:41.839Z,4.50
2022-11-23T03:29:08.402Z,4.50
2022-11-23T03:31:35.169Z,4.40
2022-11-23T03:34:01.750Z,4.40
2022-11-23T03:36:28.413Z,4.40
2022-11-23T03:38:55.074Z,4.30
2022-11-23T03:41:21.719Z,4.30
2022-11-23T03:43:48.318Z,4.20
2022-11-23T03:46:14.865Z,4.10
2022-11-23T03:48:41.486Z,4.10
2022-11-23T03:51:08.506Z,4.10
2022-11-23T03:53:35.121Z,4.00
2022-11-23T03:56:01.711Z,4.00
2022-11-23T03:58:28.260Z,4.00
2022-11-23T04:00:55.301Z,4.00
2022-11-23T04:03:21.931Z,4.00
2022-11-23T04:05:48.724Z,4.00
2022-11-23T04:08:15.295Z,4.00
2022-11-23T04:10:41.886Z,4.00
2022-11-23T04:13:08.484Z,4.00
2022-11-23T04:15:35.136Z,4.00
2022-11-23T04:18:01.728Z,3.90
2022-11-23T04:20:28.308Z,3.90
2022-11-23T04:22:54.913Z,3.90
2022-11-23T04:25:21.550Z,3.90
2022-11-23T04:27:48.162Z,3.80
2022-11-23T04:30:16.903Z,3.80
2022-11-23T04:32:46.593Z,3.80
2022-11-23T04:35:13.649Z,3.80
2022-11-23T04:37:40.304Z,3.80
2022-11-23T04:40:07.406Z,3.70
2022-11-23T04:42:33.986Z,3.50
2022-11-23T04:45:00.734Z,3.60
2022-11-23T04:47:27.386Z,3.50
2022-11-23T04:49:53.944Z,3.50
2022-11-23T04:52:20.603Z,3.60
2022-11-23T04:54:47.163Z,3.70
2022-11-23T04:57:13.766Z,3.70
2022-11-23T04:59:40.347Z,3.70
2022-11-23T05:02:06.948Z,3.70
2022-11-23T05:04:34.299Z,3.70
2022-11-23T05:07:00.876Z,3.70
2022-11-23T05:09:27.510Z,3.60
2022-11-23T05:11:54.086Z,3.60
2022-11-23T05:14:20.679Z,3.70
2022-11-23T05:16:47.236Z,3.70
2022-11-23T05:19:13.943Z,3.80
2022-11-23T05:21:40.623Z,3.80
2022-11-23T05:24:07.426Z,3.70
2022-11-23T05:26:34.016Z,3.70
2022-11-23T05:29:00.650Z,3.70
2022-11-23T05:31:27.239Z,3.70
2022-11-23T05:33:55.032Z,3.70
2022-11-23T05:36:21.598Z,3.70
2022-11-23T05:38:48.162Z,3.60
2022-11-23T05:41:15.964Z,3.60
2022-11-23T05:43:42.563Z,3.60
2022-11-23T05:46:09.148Z,3.60
2022-11-23T05:48:35.780Z,3.60
2022-11-23T05:51:05.422Z,3.60
2022-11-23T05:53:32.579Z,3.50
2022-11-23T05:56:01.185Z,3.60
2022-11-23T05:58:28.365Z,3.50
2022-11-23T06:01:01.786Z,3.50
2022-11-23T06:03:28.728Z,3.40
2022-11-23T06:05:55.436Z,3.40
2022-11-23T06:08:22.045Z,3.30
2022-11-23T06:10:48.722Z,3.30
2022-11-23T06:13:15.779Z,3.30
2022-11-23T06:15:42.399Z,3.30
2022-11-23T06:18:09.788Z,3.20
2022-11-23T06:20:36.667Z,3.20
2022-11-23T06:23:03.234Z,3.10
2022-11-23T06:25:30.014Z,3.00
2022-11-23T06:27:58.456Z,2.90
2022-11-23T06:30:27.118Z,2.90
2022-11-23T06:32:53.842Z,2.80
2022-11-23T06:35:20.606Z,2.80
2022-11-23T06:37:51.652Z,2.80
2022-11-23T06:40:18.566Z,2.80
2022-11-23T06:42:45.335Z,2.70
2022-11-23T06:45:12.648Z,2.70
2022-11-23T06:47:39.331Z,2.70
2022-11-23T06:50:06.562Z,2.70
2022-11-23T06:52:33.312Z,2.60
2022-11-23T06:55:00.010Z,2.60
2022-11-23T06:57:26.629Z,2.70
2022-11-23T06:59:53.294Z,2.70
2022-11-23T07:02:20.056Z,2.70
2022-11-23T07:04:47.087Z,2.70
2022-11-23T07:07:13.848Z,2.70
2022-11-23T07:09:40.486Z,2.70
2022-11-23T07:12:07.499Z,2.70
2022-11-23T07:14:34.183Z,2.80
2022-11-23T07:17:00.802Z,2.80
2022-11-23T07:19:27.453Z,2.80
2022-11-23T07:21:54.159Z,2.90
2022-11-23T07:24:20.759Z,2.90
2022-11-23T07:26:47.420Z,2.90
2022-11-23T07:29:14.155Z,3.00
2022-11-23T07:31:40.834Z,3.00
2022-11-23T07:34:09.180Z,3.00
2022-11-23T07:36:35.764Z,2.90
2022-11-23T07:39:02.420Z,2.90
2022-11-23T07:41:29.198Z,2.90
2022-11-23T07:43:55.807Z,2.90
2022-11-23T07:46:22.656Z,2.90
2022-11-23T07:48:49.439Z,2.90
2022-11-23T07:51:16.882Z,3.00
2022-11-23T07:53:43.539Z,3.00
2022-11-23T07:56:10.214Z,3.00
2022-11-23T07:58:36.895Z,3.00
2022-11-23T08:01:03.778Z,3.00
2022-11-23T08:03:30.894Z,3.00
2022-11-23T08:05:57.612Z,3.00
2022-11-23T08:08:24.309Z,3.00
2022-11-23T08:10:53.757Z,3.00
2022-11-23T08:13:21.393Z,3.10
2022-11-23T08:15:53.961Z,3.00
2022-11-23T08:18:21.605Z,3.10
2022-11-23T08:20:48.357Z,3.10
2022-11-23T08:23:15.218Z,3.10
2022-11-23T08:25:41.811Z,3.10
2022-11-23T08:28:08.465Z,3.20
2022-11-23T08:30:35.497Z,3.30
2022-11-23T08:33:06.445Z,3.30
2022-11-23T08:35:37.995Z,3.40
2022-11-23T08:38:05.701Z,3.40
2022-11-23T08:40:32.963Z,3.40
2022-11-23T08:42:59.642Z,3.50
2022-11-23T08:45:26.763Z,3.50
2022-11-23T08:47:54.033Z,3.70
2022-11-23T08:50:21.167Z,3.60
2022-11-23T08:52:48.054Z,3.70
2022-11-23T08:55:14.717Z,3.70
2022-11-23T08:57:41.355Z,3.70
2022-11-23T09:00:08.667Z,3.80
2022-11-23T09:02:35.227Z,3.90
2022-11-23T09:05:01.806Z,3.90
2022-11-23T09:07:28.417Z,3.90
2022-11-23T09:09:55.037Z,3.90
2022-11-23T09:12:21.611Z,4.00
2022-11-23T09:14:48.274Z,4.10
2022-11-23T09:17:14.922Z,4.10
2022-11-23T09:19:41.514Z,4.20
2022-11-23T09:22:08.107Z,4.20
2022-11-23T09:24:35.065Z,4.20
2022-11-23T09:27:02.073Z,4.30
2022-11-23T09:29:28.765Z,4.30
2022-11-23T09:31:55.378Z,4.40
2022-11-23T09:34:22.902Z,4.50
2022-11-23T09:36:49.564Z,4.50
2022-11-23T09:39:16.369Z,4.60
2022-11-23T09:42:00.113Z,4.60
2022-11-23T09:44:41.703Z,4.70
2022-11-23T09:47:41.390Z,4.80
2022-11-23T09:50:07.912Z,4.80
2022-11-23T09:52:36.467Z,4.90
2022-11-23T09:55:42.700Z,5.00
2022-11-23T09:58:19.499Z,5.00
2022-11-23T10:00:57.301Z,5.10
2022-11-23T10:03:23.964Z,5.10
2022-11-23T10:06:20.775Z,5.20
2022-11-23T10:09:18.390Z,5.20
2022-11-23T10:12:22.994Z,5.20
2022-11-23T10:15:11.008Z,5.30
2022-11-23T10:18:08.460Z,5.30
2022-11-23T10:20:43.752Z,5.40
2022-11-23T10:23:17.540Z,5.50
2022-11-23T10:25:51.742Z,5.50
2022-11-23T10:28:21.714Z,5.50
2022-11-23T10:31:07.303Z,5.50
2022-11-23T10:33:42.966Z,5.60
2022-11-23T10:36:13.601Z,5.70
2022-11-23T10:38:41.203Z,5.70
2022-11-23T10:41:10.436Z,5.70
2022-11-23T10:43:58.511Z,5.80
2022-11-23T10:46:31.906Z,5.80
2022-11-23T10:49:15.607Z,5.90
2022-11-23T10:51:49.453Z,6.00
2022-11-23T10:54:23.869Z,6.00
2022-11-23T10:56:52.344Z,6.00
2022-11-23T10:59:34.690Z,6.10
2022-11-23T11:02:18.634Z,6.10
2022-11-23T11:04:46.376Z,6.20
2022-11-23T11:07:12.992Z,6.20
2022-11-23T11:09:39.674Z,6.20
2022-11-23T11:12:18.511Z,6.30
2022-11-23T11:14:59.291Z,6.30
2022-11-23T11:17:34.651Z,6.40
2022-11-23T11:20:27.150Z,6.40
2022-11-23T11:22:55.748Z,6.50
2022-11-23T11:25:38.900Z,6.50
2022-11-23T11:28:18.581Z,6.60
2022-11-23T11:30:56.936Z,6.70
2022-11-23T11:33:42.626Z,6.70
2022-11-23T11:36:14.001Z,6.70
2022-11-23T11:38:44.195Z,6.80
2022-11-23T11:41:25.157Z,6.80
2022-11-23T11:44:18.955Z,6.80
2022-11-23T11:46:50.764Z,6.90
2022-11-23T11:49:32.820Z,6.90
2022-11-23T11:52:11.264Z,7.00
2022-11-23T11:54:42.902Z,7.00
2022-11-23T11:57:15.474Z,7.10
2022-11-23T11:59:45.739Z,7.10
2022-11-23T12:02:33.635Z,7.10
2022-11-23T12:05:26.914Z,7.20
2022-11-23T12:08:21.336Z,7.20
2022-11-23T12:10:53.239Z,7.30
2022-11-23T12:13:25.645Z,7.30
2022-11-23T12:16:14.025Z,7.30
2022-11-23T12:19:18.562Z,7.40
2022-11-23T12:22:07.839Z,7.30
2022-11-23T12:24:52.803Z,7.30
2022-11-23T12:27:24.459Z,7.30
2022-11-23T12:30:42.322Z,7.30
2022-11-23T12:33:46.218Z,7.30
2022-11-23T12:36:35.323Z,7.40
2022-11-23T12:39:07.893Z,7.40
2022-11-23T12:42:11.420Z,7.50
2022-11-23T12:45:19.918Z,7.60
2022-11-23T12:48:25.839Z,7.80
2022-11-23T12:51:12.025Z,7.80
2022-11-23T12:54:00.055Z,7.80
2022-11-23T12:56:47.946Z,7.90
2022-11-23T12:59:15.157Z,7.80
2022-11-23T13:01:46.323Z,7.80
2022-11-23T13:04:18.746Z,7.80
2022-11-23T13:07:30.614Z,7.80
2022-11-23T13:10:09.690Z,7.70
2022-11-23T13:13:16.041Z,7.70
2022-11-23T13:16:03.650Z,7.70
2022-11-23T13:19:04.924Z,7.80
2022-11-23T13:21:38.660Z,7.80
2022-11-23T13:24:23.963Z,7.80
2022-11-23T13:27:31.634Z,7.90
2022-11-23T13:30:01.018Z,7.90
2022-11-23T13:32:34.188Z,7.90
2022-11-23T13:35:01.143Z,7.90
2022-11-23T13:37:27.734Z,7.90
2022-11-23T13:39:57.649Z,7.90
2022-11-23T13:42:31.206Z,7.90
2022-11-23T13:45:19.171Z,7.90
2022-11-23T13:48:04.191Z,8.00
2022-11-23T13:50:32.367Z,8.10
2022-11-23T13:52:59.711Z,8.10
2022-11-23T13:55:38.237Z,8.10
2022-11-23T13:58:23.422Z,8.10
2022-11-23T14:00:51.690Z,8.10
2022-11-23T14:03:44.097Z,8.10
2022-11-23T14:06:20.537Z,8.10
2022-11-23T14:08:49.965Z,8.10
2022-11-23T14:11:22.223Z,8.10
2022-11-23T14:13:55.032Z,8.10
2022-11-23T14:16:38.474Z,8.10
2022-11-23T14:19:27.626Z,8.10
2022-11-23T14:22:24.339Z,8.00
2022-11-23T14:25:16.726Z,8.00
2022-11-23T14:28:07.451Z,8.10
2022-11-23T14:30:52.771Z,8.20
2022-11-23T14:33:22.458Z,8.20
2022-11-23T14:36:18.365Z,8.20
2022-11-23T14:38:48.085Z,8.20
2022-11-23T14:41:23.821Z,8.30
2022-11-23T14:43:51.057Z,8.30
2022-11-23T14:46:20.773Z,8.30
2022-11-23T14:48:49.137Z,8.30
2022-11-23T14:51:22.905Z,8.30
2022-11-23T14:53:56.025Z,8.30
2022-11-23T14:56:32.769Z,8.30
2022-11-23T14:59:07.608Z,8.30
2022-11-23T15:01:35.129Z,8.30
2022-11-23T15:04:26.011Z,8.30
2022-11-23T15:06:59.346Z,8.40
2022-11-23T15:09:49.791Z,8.30
2022-11-23T15:12:26.707Z,8.30
2022-11-23T15:14:57.598Z,8.20
2022-11-23T15:17:24.814Z,8.10
2022-11-23T15:19:59.310Z,8.00
2022-11-23T15:22:27.656Z,8.00
2022-11-23T15:24:55.074Z,8.00
2022-11-23T15:27:29.479Z,8.00
2022-11-23T15:29:58.485Z,8.00
2022-11-23T15:32:33.762Z,7.90
2022-11-23T15:35:06.569Z,7.90
2022-11-23T15:37:40.990Z,7.90
2022-11-23T15:40:12.086Z,7.90
2022-11-23T15:42:39.027Z,7.90
2022-11-23T15:45:06.161Z,7.80
2022-11-23T15:47:32.932Z,7.90
2022-11-23T15:50:08.273Z,7.90
2022-11-23T15:52:37.564Z,7.80
2022-11-23T15:55:13.408Z,7.80
2022-11-23T15:57:41.580Z,7.80
2022-11-23T16:00:20.800Z,7.90
2022-11-23T16:02:47.508Z,7.90
2022-11-23T16:05:16.355Z,7.90
2022-11-23T16:07:57.415Z,7.90
2022-11-23T16:10:26.659Z,7.80
2022-11-23T16:12:57.452Z,7.80
2022-11-23T16:15:27.528Z,7.80
2022-11-23T16:17:54.389Z,7.70
2022-11-23T16:20:23.665Z,7.70
2022-11-23T16:22:51.442Z,7.70
2022-11-23T16:25:29.588Z,7.70
2022-11-23T16:28:14.709Z,7.60
2022-11-23T16:30:43.735Z,7.60
2022-11-23T16:33:16.176Z,7.60
2022-11-23T16:35:43.101Z,7.60
2022-11-23T16:38:09.854Z,7.50
2022-11-23T16:40:36.482Z,7.50
2022-11-23T16:43:04.075Z,7.50
2022-11-23T16:45:31.992Z,7.50
2022-11-23T16:48:02.549Z,7.50
2022-11-23T16:50:34.408Z,7.50
2022-11-23T16:53:11.194Z,7.50
2022-11-23T16:55:42.281Z,7.50
2022-11-23T16:58:14.564Z,7.60
2022-11-23T17:00:41.212Z,7.60
2022-11-23T17:03:14.441Z,7.50
2022-11-23T17:05:41.052Z,7.40
2022-11-23T17:08:07.982Z,7.40
2022-11-23T17:10:36.868Z,7.40
2022-11-23T17:13:04.275Z,7.30
2022-11-23T17:15:30.933Z,7.20
2022-11-23T17:17:57.508Z,7.10
2022-11-23T17:20:24.751Z,7.00
2022-11-23T17:22:51.896Z,7.00
2022-11-23T17:25:18.960Z,7.00
2022-11-23T17:27:48.505Z,6.90
2022-11-23T17:30:18.037Z,6.90
2022-11-23T17:32:44.764Z,7.00
2022-11-23T17:35:11.377Z,6.90
2022-11-23T17:37:38.056Z,6.80
2022-11-23T17:40:14.396Z,6.90
2022-11-23T17:42:41.035Z,6.90
2022-11-23T17:45:07.900Z,6.90
2022-11-23T17:47:34.672Z,6.90
2022-11-23T17:50:01.303Z,6.90
2022-11-23T17:52:27.923Z,7.10
2022-11-23T17:54:54.645Z,7.10
2022-11-23T17:57:25.699Z,7.10
2022-11-23T17:59:53.643Z,7.20
2022-11-23T18:02:21.037Z,7.20
2022-11-23T18:04:47.783Z,7.20
2022-11-23T18:07:18.318Z,7.30
2022-11-23T18:09:45.130Z,7.40
2022-11-23T18:12:11.828Z,7.40
2022-11-23T18:14:38.671Z,7.50
2022-11-23T18:17:05.984Z,7.50
2022-11-23T18:19:32.831Z,7.60
2022-11-23T18:21:59.626Z,7.60
2022-11-23T18:24:26.239Z,7.60
2022-11-23T18:26:52.803Z,7.70
2022-11-23T18:29:19.448Z,7.70
2022-11-23T18:31:46.204Z,7.70
2022-11-23T18:34:12.842Z,7.80
2022-11-23T18:36:39.541Z,7.80
2022-11-23T18:39:06.460Z,7.90
2022-11-23T18:41:33.066Z,8.00
2022-11-23T18:43:59.647Z,8.00
2022-11-23T18:46:26.339Z,8.00
2022-11-23T18:48:53.486Z,8.00
2022-11-23T18:51:20.202Z,8.00
2022-11-23T18:53:47.949Z,8.00
2022-11-23T18:56:14.997Z,8.00
2022-11-23T18:58:43.652Z,8.00
2022-11-23T19:01:17.576Z,8.00
2022-11-23T19:03:46.751Z,8.00
2022-11-23T19:06:15.748Z,8.00
2022-11-23T19:08:48.003Z,8.00
2022-11-23T19:11:19.446Z,8.10
2022-11-23T19:13:48.207Z,8.10
2022-11-23T19:16:21.332Z,8.10
2022-11-23T19:18:52.943Z,8.10
2022-11-23T19:21:21.466Z,8.20
2022-11-23T19:23:49.995Z,8.20
2022-11-23T19:26:17.932Z,8.20
2022-11-23T19:28:44.962Z,8.20
2022-11-23T19:31:23.994Z,8.20
2022-11-23T19:33:52.348Z,8.20
2022-11-23T19:36:21.412Z,8.30
2022-11-23T19:38:48.840Z,8.30
2022-11-23T19:41:16.176Z,8.40
2022-11-23T19:43:42.925Z,8.40
2022-11-23T19:46:12.711Z,8.40
2022-11-23T19:48:40.301Z,8.40
2022-11-23T19:51:11.086Z,8.50
2022-11-23T19:53:39.005Z,8.50
2022-11-23T19:56:12.935Z,8.50
2022-11-23T19:58:40.331Z,8.50
2022-11-23T20:01:12.392Z,8.50
2022-11-23T20:03:40.824Z,8.50
2022-11-23T20:06:18.722Z,8.50
2022-11-23T20:08:45.928Z,8.50
2022-11-23T20:11:15.221Z,8.50
2022-11-23T20:13:42.401Z,8.50
2022-11-23T20:16:14.343Z,8.50
2022-11-23T20:18:42.112Z,8.50
2022-11-23T20:21:17.174Z,8.40
2022-11-23T20:23:45.309Z,8.40
2022-11-23T20:26:18.565Z,8.40
2022-11-23T20:28:46.438Z,8.40
2022-11-23T20:31:20.421Z,8.40
2022-11-23T20:33:50.414Z,8.40
2022-11-23T20:36:19.569Z,8.40
2022-11-23T20:38:46.761Z,8.30
2022-11-23T20:41:17.903Z,8.20
2022-11-23T20:43:46.402Z,8.20
2022-11-23T20:46:22.388Z,8.10
2022-11-23T20:48:59.225Z,8.10
2022-11-23T20:51:27.816Z,8.20
2022-11-23T20:53:54.968Z,8.20
2022-11-23T20:56:26.956Z,8.20
2022-11-23T20:58:55.700Z,8.20
2022-11-23T21:01:22.446Z,8.20
2022-11-23T21:03:51.969Z,8.20
2022-11-23T21:06:19.156Z,8.20
2022-11-23T21:08:48.010Z,8.20
2022-11-23T21:11:34.460Z,8.30
2022-11-23T21:14:15.709Z,8.30
2022-11-23T21:16:49.103Z,8.30
2022-11-23T21:19:15.732Z,8.30
2022-11-23T21:21:42.392Z,8.30
2022-11-23T21:24:09.561Z,8.30
2022-11-23T21:26:36.587Z,8.30
2022-11-23T21:29:11.177Z,8.30
2022-11-23T21:31:39.666Z,8.40
2022-11-23T21:34:06.557Z,8.40
2022-11-23T21:36:39.648Z,8.30
2022-11-23T21:39:08.540Z,8.30
2022-11-23T21:41:35.752Z,8.30
2022-11-23T21:44:03.001Z,8.30
2022-11-23T21:46:30.023Z,8.30
2022-11-23T21:48:58.304Z,8.20
2022-11-23T21:51:28.442Z,8.20
2022-11-23T21:53:55.894Z,8.10
2022-11-23T21:56:23.153Z,8.00
2022-11-23T21:58:50.454Z,8.10
2022-11-23T22:01:19.502Z,8.10
2022-11-23T22:03:48.776Z,8.00
2022-11-23T22:06:20.176Z,8.00
2022-11-23T22:08:52.766Z,8.00
2022-11-23T22:11:29.473Z,7.90
2022-11-23T22:13:57.129Z,8.00
2022-11-23T22:16:26.185Z,8.00
2022-11-23T22:18:55.992Z,7.90
2022-11-23T22:21:25.360Z,7.90
2022-11-23T22:23:52.046Z,7.90
2022-11-23T22:26:20.428Z,7.80
2022-11-23T22:28:49.589Z,7.80
2022-11-23T22:31:18.960Z,7.70
2022-11-23T22:33:46.179Z,7.60
2022-11-23T22:36:18.921Z,7.70
2022-11-23T22:38:46.566Z,7.60
2022-11-23T22:41:15.881Z,7.70
2022-11-23T22:43:43.014Z,7.70
2022-11-23T22:46:18.458Z,7.60
2022-11-23T22:48:47.179Z,7.50
2022-11-23T22:51:15.910Z,7.50
2022-11-23T22:53:44.788Z,7.50
2022-11-23T22:56:17.482Z,7.50
2022-11-23T22:58:45.235Z,7.50
2022-11-23T23:01:14.631Z,7.40
2022-11-23T23:03:42.428Z,7.40
2022-11-23T23:06:30.907Z,7.30
2022-11-23T23:08:59.954Z,7.30
2022-11-23T23:11:29.001Z,7.20
2022-11-23T23:13:56.230Z,7.20
2022-11-23T23:16:23.216Z,7.10
2022-11-23T23:18:49.909Z,7.20
2022-11-23T23:21:19.026Z,7.10
2022-11-23T23:23:47.892Z,7.10
2022-11-23T23:26:17.177Z,7.20
2022-11-23T23:28:43.994Z,7.20
2022-11-23T23:31:13.889Z,7.20
2022-11-23T23:33:40.754Z,7.20
2022-11-23T23:36:12.877Z,7.30
2022-11-23T23:38:39.548Z,7.40
2022-11-23T23:41:08.084Z,7.30
2022-11-23T23:43:34.780Z,7.30
2022-11-23T23:46:03.888Z,7.30
2022-11-23T23:48:33.233Z,7.30
2022-11-23T23:51:12.539Z,7.30
2022-11-23T23:53:39.876Z,7.30
2022-11-23T23:56:09.127Z,7.30
2022-11-23T23:58:36.481Z,7.30
